createdAt,value
2023-06-21T00:01:43.314Z,96.38
2023-06-21T00:04:12.196Z,96.25
2023-06-21T00:06:39.474Z,96.09
2023-06-21T00:09:07.031Z,95.75
2023-06-21T00:11:34.225Z,95.78
2023-06-21T00:14:02.769Z,96.56
2023-06-21T00:16:29.381Z,95.63
2023-06-21T00:18:56.119Z,95.75
2023-06-21T00:21:23.142Z,95.85
2023-06-21T00:23:50.107Z,95.84
2023-06-21T00:26:16.762Z,95.28
2023-06-21T00:28:54.263Z,95.76
2023-06-21T00:31:24.785Z,95.29
2023-06-21T00:33:56.356Z,95.85
2023-06-21T00:36:25.393Z,96.17
2023-06-21T00:38:52.304Z,95.82
2023-06-21T00:41:27.654Z,95.90
2023-06-21T00:43:54.675Z,95.46
2023-06-21T00:46:22.855Z,95.24
2023-06-21T00:48:54.027Z,95.64
2023-06-21T00:51:21.099Z,95.83
2023-06-21T00:53:48.626Z,96.19
2023-06-21T00:56:17.963Z,95.98
2023-06-21T00:58:45.387Z,95.85
2023-06-21T01:01:12.216Z,95.81
2023-06-21T01:03:42.062Z,96.00
2023-06-21T01:06:30.873Z,97.19
2023-06-21T01:09:14.823Z,96.64
2023-06-21T01:11:55.055Z,96.42
2023-06-21T01:15:04.518Z,95.81
2023-06-21T01:17:36.201Z,96.06
2023-06-21T01:20:44.107Z,95.95
2023-06-21T01:23:30.485Z,95.99
2023-06-21T01:26:21.303Z,95.75
2023-06-21T01:29:17.199Z,96.39
2023-06-21T01:31:51.557Z,96.57
2023-06-21T01:34:42.247Z,96.44
2023-06-21T01:37:29.774Z,96.57
2023-06-21T01:40:07.250Z,96.59
2023-06-21T01:45:24.690Z,96.60
2023-06-21T01:47:55.665Z,96.36
2023-06-21T01:50:25.549Z,96.53
2023-06-21T01:52:53.207Z,97.12
2023-06-21T01:55:21.577Z,96.82
2023-06-21T01:57:48.963Z,97.17
2023-06-21T02:00:22.710Z,97.13
2023-06-21T02:02:56.473Z,96.47
2023-06-21T02:05:24.842Z,96.99
2023-06-21T02:08:01.972Z,96.19
2023-06-21T02:10:36.683Z,96.67
2023-06-21T02:13:05.851Z,96.98
2023-06-21T02:18:32.119Z,96.47
2023-06-21T02:21:07.897Z,96.84
2023-06-21T02:23:46.204Z,97.14
2023-06-21T02:26:18.821Z,96.86
2023-06-21T02:28:47.534Z,96.88
2023-06-21T02:31:25.585Z,96.54
2023-06-21T02:37:18.769Z,96.08
2023-06-21T02:40:08.713Z,96.14
2023-06-21T02:42:49.116Z,96.70
2023-06-21T02:45:20.146Z,96.28
2023-06-21T02:47:47.919Z,97.03
2023-06-21T02:50:18.689Z,96.91
2023-06-21T02:52:45.766Z,97.00
2023-06-21T02:55:12.950Z,96.31
2023-06-21T02:57:42.798Z,97.00
2023-06-21T03:00:31.424Z,96.73
2023-06-21T03:03:05.801Z,96.88
2023-06-21T03:05:41.002Z,96.95
2023-06-21T03:08:30.765Z,96.96
2023-06-21T03:17:49.562Z,96.72
2023-06-21T03:21:07.313Z,96.53
2023-06-21T03:23:55.256Z,96.46
2023-06-21T03:26:46.591Z,96.73
2023-06-21T03:30:08.397Z,96.96
2023-06-21T03:32:49.356Z,96.93
2023-06-21T03:35:20.263Z,96.81
2023-06-21T03:37:51.631Z,97.01
2023-06-21T03:40:23.768Z,97.02
2023-06-21T03:42:50.378Z,97.45
2023-06-21T03:45:17.041Z,97.42
2023-06-21T03:47:50.094Z,96.94
2023-06-21T03:50:17.567Z,97.67
2023-06-21T03:52:46.477Z,97.32
2023-06-21T03:55:13.105Z,97.12
2023-06-21T03:57:39.686Z,98.16
2023-06-21T04:00:10.122Z,97.65
2023-06-21T04:02:42.844Z,97.21
2023-06-21T04:05:12.766Z,97.05
2023-06-21T04:07:39.894Z,96.60
2023-06-21T04:10:07.260Z,96.95
2023-06-21T04:12:33.876Z,96.81
2023-06-21T04:15:04.954Z,96.63
2023-06-21T04:17:32.596Z,96.79
2023-06-21T04:19:59.472Z,96.35
2023-06-21T04:22:26.256Z,96.48
2023-06-21T04:24:53.333Z,96.14
2023-06-21T04:27:20.124Z,96.09
2023-06-21T04:29:49.229Z,96.30
2023-06-21T04:32:15.793Z,95.78
2023-06-21T04:34:44.635Z,95.03
2023-06-21T04:37:11.293Z,94.73
2023-06-21T04:39:37.851Z,93.14
2023-06-21T04:42:04.881Z,92.59
2023-06-21T04:44:31.504Z,91.86
2023-06-21T04:47:01.651Z,90.99
2023-06-21T04:49:30.073Z,91.44
2023-06-21T04:51:59.210Z,89.96
2023-06-21T04:54:26.781Z,90.79
2023-06-21T04:56:53.643Z,90.90
2023-06-21T04:59:20.209Z,90.23
2023-06-21T05:01:46.902Z,90.81
2023-06-21T05:04:13.681Z,89.80
2023-06-21T05:06:41.838Z,91.11
2023-06-21T05:09:10.030Z,90.21
2023-06-21T05:11:37.778Z,89.30
2023-06-21T05:14:05.602Z,88.16
2023-06-21T05:16:32.996Z,88.20
2023-06-21T05:18:59.550Z,87.74
2023-06-21T05:21:26.065Z,86.55
2023-06-21T05:23:52.631Z,86.60
2023-06-21T05:26:19.166Z,87.92
2023-06-21T05:28:45.669Z,87.29
2023-06-21T05:31:12.238Z,85.97
2023-06-21T05:33:38.750Z,85.67
2023-06-21T05:36:05.520Z,83.86
2023-06-21T05:38:31.987Z,78.01
2023-06-21T05:40:58.448Z,77.89
2023-06-21T05:43:25.012Z,73.39
2023-06-21T05:45:51.482Z,73.06
2023-06-21T05:48:19.132Z,73.47
2023-06-21T05:50:45.753Z,71.76
2023-06-21T05:53:12.383Z,69.41
2023-06-21T05:55:39.021Z,66.81
2023-06-21T05:58:07.170Z,69.97
2023-06-21T06:00:33.670Z,74.51
2023-06-21T06:03:00.169Z,76.00
2023-06-21T06:05:26.691Z,71.33
2023-06-21T06:07:53.172Z,68.55
2023-06-21T06:10:19.684Z,68.94
2023-06-21T06:12:46.223Z,67.93
2023-06-21T06:15:15.249Z,67.07
2023-06-21T06:17:41.826Z,69.60
2023-06-21T06:20:08.974Z,73.37
2023-06-21T06:22:38.466Z,75.55
2023-06-21T06:25:05.401Z,77.48
2023-06-21T06:27:32.254Z,77.64
2023-06-21T06:29:59.232Z,78.40
2023-06-21T06:32:28.115Z,79.41
2023-06-21T06:34:54.670Z,76.31
2023-06-21T06:37:26.204Z,77.09
2023-06-21T06:39:55.970Z,77.21
2023-06-21T06:42:22.511Z,74.80
2023-06-21T06:44:49.119Z,70.34
2023-06-21T06:47:15.654Z,65.37
2023-06-21T06:49:42.346Z,67.79
2023-06-21T06:52:11.365Z,69.17
2023-06-21T06:54:37.837Z,68.85
2023-06-21T06:57:04.580Z,63.36
2023-06-21T06:59:31.675Z,61.57
2023-06-21T07:01:58.486Z,60.34
2023-06-21T07:04:26.868Z,62.15
2023-06-21T07:06:53.778Z,60.37
2023-06-21T07:09:20.208Z,53.11
2023-06-21T07:11:46.724Z,49.48
2023-06-21T07:14:13.346Z,48.67
2023-06-21T07:16:45.237Z,45.68
2023-06-21T07:19:11.842Z,42.46
2023-06-21T07:21:40.208Z,41.45
2023-06-21T07:24:06.693Z,40.48
2023-06-21T07:26:34.591Z,41.91
2023-06-21T07:29:02.003Z,40.04
2023-06-21T07:31:28.804Z,39.58
2023-06-21T07:33:57.690Z,40.79
2023-06-21T07:36:24.547Z,44.82
2023-06-21T07:38:53.310Z,49.67
2023-06-21T07:41:20.018Z,51.43
2023-06-21T07:43:46.515Z,48.44
2023-06-21T07:46:16.166Z,46.56
2023-06-21T07:48:42.981Z,41.80
2023-06-21T07:51:10.196Z,41.81
2023-06-21T07:53:36.724Z,40.85
2023-06-21T07:56:03.224Z,42.89
2023-06-21T07:58:30.053Z,41.86
2023-06-21T08:00:56.615Z,39.31
2023-06-21T08:03:23.389Z,38.78
2023-06-21T08:05:49.951Z,39.27
2023-06-21T08:08:18.763Z,39.38
2023-06-21T08:10:45.546Z,44.67
2023-06-21T08:13:12.252Z,46.65
2023-06-21T08:15:39.016Z,48.17
2023-06-21T08:18:05.723Z,43.62
2023-06-21T08:20:34.693Z,42.31
2023-06-21T08:23:01.705Z,42.85
2023-06-21T08:25:32.071Z,41.45
2023-06-21T08:28:01.460Z,45.13
2023-06-21T08:30:28.285Z,47.99
2023-06-21T08:32:55.290Z,47.68
2023-06-21T08:35:21.970Z,48.90
2023-06-21T08:38:18.419Z,46.80
2023-06-21T08:40:49.538Z,45.17
2023-06-21T08:43:16.179Z,42.45
2023-06-21T08:45:42.812Z,41.67
2023-06-21T08:48:10.793Z,41.50
2023-06-21T08:50:41.558Z,42.69
2023-06-21T08:53:13.793Z,41.70
2023-06-21T08:55:42.382Z,41.97
2023-06-21T08:58:17.419Z,44.63
2023-06-21T09:00:51.558Z,45.91
2023-06-21T09:03:27.572Z,43.55
2023-06-21T09:06:04.208Z,44.53
2023-06-21T09:08:34.934Z,41.73
2023-06-21T09:11:02.096Z,41.29
2023-06-21T09:13:32.959Z,45.51
2023-06-21T09:16:00.259Z,44.94
2023-06-21T09:18:27.610Z,42.26
2023-06-21T09:20:55.358Z,42.91
2023-06-21T09:23:23.871Z,43.34
2023-06-21T09:25:50.388Z,48.71
2023-06-21T09:28:17.074Z,45.25
2023-06-21T09:30:44.398Z,40.93
2023-06-21T09:33:11.662Z,40.46
2023-06-21T09:35:40.109Z,39.69
2023-06-21T09:38:24.382Z,39.35
2023-06-21T09:40:51.620Z,36.82
2023-06-21T09:43:19.814Z,33.74
2023-06-21T09:46:10.137Z,37.62
2023-06-21T09:48:38.738Z,35.23
2023-06-21T09:51:08.208Z,39.10
2023-06-21T09:53:48.762Z,36.48
2023-06-21T09:56:19.739Z,36.28
2023-06-21T09:58:50.080Z,37.05
2023-06-21T10:01:17.737Z,36.66
2023-06-21T10:03:46.290Z,35.75
2023-06-21T10:06:18.131Z,36.29
2023-06-21T10:08:52.536Z,36.58
2023-06-21T10:11:20.888Z,34.28
2023-06-21T10:13:47.522Z,33.84
2023-06-21T10:16:18.668Z,37.22
2023-06-21T10:18:45.553Z,33.80
2023-06-21T10:21:13.355Z,33.83
2023-06-21T10:23:42.950Z,34.78
2023-06-21T10:26:14.079Z,36.15
2023-06-21T10:28:43.502Z,33.41
2023-06-21T10:31:10.524Z,32.88
2023-06-21T10:33:38.281Z,31.99
2023-06-21T10:36:06.996Z,33.17
2023-06-21T10:38:42.729Z,34.00
2023-06-21T10:41:10.031Z,35.08
2023-06-21T10:43:36.668Z,36.05
2023-06-21T10:46:06.150Z,36.39
2023-06-21T10:48:34.529Z,35.81
2023-06-21T10:51:03.117Z,35.16
2023-06-21T10:53:32.577Z,32.91
2023-06-21T10:56:01.587Z,31.96
2023-06-21T10:58:29.911Z,32.89
2023-06-21T11:00:57.646Z,32.63
2023-06-21T11:03:27.092Z,31.88
2023-06-21T11:05:55.862Z,33.11
2023-06-21T11:08:38.118Z,31.71
2023-06-21T11:11:04.952Z,32.44
2023-06-21T11:13:36.706Z,33.96
2023-06-21T11:16:11.470Z,36.44
2023-06-21T11:18:38.673Z,33.40
2023-06-21T11:21:08.828Z,31.89
2023-06-21T11:23:52.573Z,33.63
2023-06-21T11:26:19.556Z,35.36
2023-06-21T11:28:50.257Z,32.98
2023-06-21T11:31:18.994Z,37.64
2023-06-21T11:33:47.335Z,38.14
2023-06-21T11:36:14.195Z,38.26
2023-06-21T11:38:50.445Z,33.88
2023-06-21T11:41:56.315Z,35.71
2023-06-21T11:44:29.132Z,37.90
2023-06-21T11:47:15.014Z,34.18
2023-06-21T11:49:48.102Z,34.27
2023-06-21T11:52:14.870Z,34.34
2023-06-21T11:54:41.369Z,32.39
2023-06-21T11:57:08.897Z,34.55
2023-06-21T11:59:36.448Z,35.11
2023-06-21T12:02:17.733Z,36.70
2023-06-21T12:04:45.272Z,34.68
2023-06-21T12:07:11.971Z,34.45
2023-06-21T12:09:40.024Z,36.07
2023-06-21T12:12:08.041Z,34.47
2023-06-21T12:14:36.548Z,35.83
2023-06-21T12:17:04.496Z,35.85
2023-06-21T12:19:31.720Z,34.95
2023-06-21T12:22:03.389Z,34.82
2023-06-21T12:24:31.046Z,32.60
2023-06-21T12:26:59.400Z,34.09
2023-06-21T12:29:28.218Z,36.13
2023-06-21T12:31:57.951Z,38.75
2023-06-21T12:34:26.626Z,36.05
2023-06-21T12:36:56.331Z,37.34
2023-06-21T12:39:23.952Z,36.67
2023-06-21T12:41:50.658Z,36.99
2023-06-21T12:44:20.036Z,38.86
2023-06-21T12:46:46.703Z,36.91
2023-06-21T12:49:16.507Z,34.59
2023-06-21T12:51:46.485Z,34.43
2023-06-21T12:54:15.096Z,34.60
2023-06-21T12:56:43.309Z,34.55
2023-06-21T12:59:10.200Z,32.42
2023-06-21T13:01:38.103Z,35.24
2023-06-21T13:04:13.391Z,33.97
2023-06-21T13:06:40.919Z,33.74
2023-06-21T13:09:07.882Z,35.23
2023-06-21T13:11:34.661Z,33.31
2023-06-21T13:14:01.591Z,35.59
2023-06-21T13:16:28.097Z,35.18
2023-06-21T13:18:55.389Z,33.03
2023-06-21T13:21:22.708Z,34.30
2023-06-21T13:23:51.131Z,36.35
2023-06-21T13:26:18.843Z,34.92
2023-06-21T13:28:45.695Z,35.08
2023-06-21T13:31:14.157Z,36.75
2023-06-21T13:33:41.455Z,34.23
2023-06-21T13:36:09.246Z,38.29
2023-06-21T13:38:36.121Z,37.78
2023-06-21T13:41:05.118Z,39.25
2023-06-21T13:43:32.283Z,37.57
2023-06-21T13:45:58.928Z,36.75
2023-06-21T13:48:25.650Z,37.41
2023-06-21T13:50:53.184Z,36.87
2023-06-21T13:53:22.476Z,36.29
2023-06-21T13:55:49.609Z,35.50
2023-06-21T13:58:16.196Z,36.53
2023-06-21T14:00:42.723Z,37.01
2023-06-21T14:03:09.468Z,35.77
2023-06-21T14:05:36.135Z,37.73
2023-06-21T14:08:04.577Z,35.49
2023-06-21T14:10:32.928Z,38.87
2023-06-21T14:13:00.050Z,37.74
2023-06-21T14:15:26.936Z,38.39
2023-06-21T14:17:53.734Z,38.86
2023-06-21T14:20:20.293Z,37.38
2023-06-21T14:22:46.827Z,36.71
2023-06-21T14:25:13.392Z,34.76
2023-06-21T14:27:40.634Z,35.04
2023-06-21T14:30:11.089Z,35.28
2023-06-21T14:32:37.753Z,36.45
2023-06-21T14:35:04.625Z,34.02
2023-06-21T14:37:31.313Z,34.39
2023-06-21T14:39:58.058Z,34.40
2023-06-21T14:42:28.943Z,36.35
2023-06-21T14:44:55.614Z,35.15
2023-06-21T14:47:22.280Z,34.18
2023-06-21T14:49:50.962Z,36.06
2023-06-21T14:52:17.993Z,36.39
2023-06-21T14:54:44.616Z,39.44
2023-06-21T14:57:12.498Z,39.18
2023-06-21T14:59:41.212Z,39.77
2023-06-21T15:02:10.258Z,39.83
2023-06-21T15:04:36.901Z,35.88
2023-06-21T15:07:03.519Z,38.09
2023-06-21T15:09:30.207Z,38.36
2023-06-21T15:11:57.876Z,39.22
2023-06-21T15:14:25.583Z,37.15
2023-06-21T15:16:52.160Z,37.78
2023-06-21T15:19:21.305Z,39.45
2023-06-21T15:21:48.632Z,39.02
2023-06-21T15:24:15.417Z,41.82
2023-06-21T15:26:42.455Z,41.42
2023-06-21T15:29:09.294Z,39.05
2023-06-21T15:31:37.185Z,40.59
2023-06-21T15:34:09.747Z,38.03
2023-06-21T15:36:38.874Z,38.78
2023-06-21T15:39:06.827Z,38.83
2023-06-21T15:41:33.973Z,39.93
2023-06-21T15:44:00.968Z,41.10
2023-06-21T15:46:29.311Z,39.31
2023-06-21T15:48:57.355Z,38.24
2023-06-21T15:51:25.149Z,38.56
2023-06-21T15:53:56.460Z,38.67
2023-06-21T15:56:24.393Z,38.96
2023-06-21T15:58:51.704Z,41.33
2023-06-21T16:01:18.849Z,37.49
2023-06-21T16:03:47.528Z,39.21
2023-06-21T16:06:15.576Z,38.77
2023-06-21T16:08:42.448Z,39.10
2023-06-21T16:11:12.240Z,40.26
2023-06-21T16:13:46.641Z,41.02
2023-06-21T16:16:14.331Z,41.00
2023-06-21T16:18:41.034Z,39.36
2023-06-21T16:21:07.712Z,38.43
2023-06-21T16:23:34.649Z,38.77
2023-06-21T16:26:01.728Z,39.30
2023-06-21T16:28:28.693Z,39.70
2023-06-21T16:30:55.286Z,42.37
2023-06-21T16:33:21.930Z,42.83
2023-06-21T16:35:49.238Z,42.51
2023-06-21T16:38:16.057Z,42.82
2023-06-21T16:40:42.776Z,39.86
2023-06-21T16:43:09.495Z,40.64
2023-06-21T16:45:36.088Z,42.70
2023-06-21T16:48:03.432Z,41.40
2023-06-21T16:50:30.141Z,41.89
2023-06-21T16:52:56.715Z,42.38
2023-06-21T16:55:23.311Z,43.00
2023-06-21T16:57:50.247Z,43.74
2023-06-21T17:00:17.133Z,43.70
2023-06-21T17:02:43.956Z,42.66
2023-06-21T17:05:10.696Z,42.77
2023-06-21T17:07:37.552Z,42.03
2023-06-21T17:10:04.488Z,41.91
2023-06-21T17:12:30.958Z,42.38
2023-06-21T17:14:57.761Z,43.89
2023-06-21T17:17:25.354Z,42.10
2023-06-21T17:19:51.912Z,42.17
2023-06-21T17:22:18.429Z,41.96
2023-06-21T17:24:44.949Z,42.20
2023-06-21T17:27:11.513Z,41.38
2023-06-21T17:29:38.023Z,41.94
2023-06-21T17:32:04.791Z,41.31
2023-06-21T17:34:31.829Z,43.17
2023-06-21T17:36:58.422Z,42.01
2023-06-21T17:39:25.402Z,42.37
2023-06-21T17:41:52.054Z,41.65
2023-06-21T17:44:18.658Z,44.53
2023-06-21T17:46:45.289Z,44.64
2023-06-21T17:49:12.058Z,44.48
2023-06-21T17:51:38.570Z,43.67
2023-06-21T17:54:05.092Z,45.66
2023-06-21T17:56:33.672Z,44.36
2023-06-21T17:59:01.515Z,46.78
2023-06-21T18:01:28.143Z,46.93
2023-06-21T18:03:54.977Z,46.13
2023-06-21T18:06:23.070Z,47.16
2023-06-21T18:08:49.513Z,47.29
2023-06-21T18:11:16.085Z,48.56
2023-06-21T18:13:42.578Z,48.63
2023-06-21T18:16:08.992Z,48.64
2023-06-21T18:18:35.465Z,49.71
2023-06-21T18:21:02.000Z,50.07
2023-06-21T18:23:28.870Z,49.32
2023-06-21T18:25:57.290Z,49.09
2023-06-21T18:28:24.643Z,49.94
2023-06-21T18:30:51.270Z,50.50
2023-06-21T18:33:18.191Z,50.27
2023-06-21T18:35:44.823Z,50.18
2023-06-21T18:38:11.323Z,52.37
2023-06-21T18:40:38.566Z,51.87
2023-06-21T18:43:05.061Z,53.26
2023-06-21T18:45:31.516Z,53.34
2023-06-21T18:47:58.050Z,52.93
2023-06-21T18:50:24.717Z,53.73
2023-06-21T18:52:51.256Z,53.71
2023-06-21T18:55:17.857Z,53.48
2023-06-21T18:57:44.411Z,53.91
2023-06-21T19:00:13.566Z,54.19
2023-06-21T19:02:40.213Z,54.37
2023-06-21T19:05:07.355Z,54.52
2023-06-21T19:07:34.250Z,54.76
2023-06-21T19:10:00.915Z,55.71
2023-06-21T19:12:27.867Z,55.49
2023-06-21T19:14:54.801Z,57.03
2023-06-21T19:17:21.871Z,57.62
2023-06-21T19:19:48.601Z,57.63
2023-06-21T19:22:15.346Z,58.57
2023-06-21T19:24:42.069Z,58.97
2023-06-21T19:27:23.609Z,58.60
2023-06-21T19:29:53.151Z,58.70
2023-06-21T19:32:22.512Z,59.22
2023-06-21T19:34:49.568Z,59.79
2023-06-21T19:37:31.459Z,60.07
2023-06-21T19:39:58.321Z,60.46
2023-06-21T19:42:24.939Z,60.34
2023-06-21T19:44:54.121Z,60.80
2023-06-21T19:47:20.761Z,60.59
2023-06-21T19:49:47.373Z,60.55
2023-06-21T19:52:17.338Z,60.95
2023-06-21T19:54:44.030Z,61.09
2023-06-21T19:57:10.685Z,61.18
2023-06-21T19:59:37.459Z,62.21
2023-06-21T20:02:04.593Z,62.22
2023-06-21T20:04:31.544Z,62.50
2023-06-21T20:06:58.303Z,62.97
2023-06-21T20:09:25.128Z,63.25
2023-06-21T20:11:51.854Z,63.07
2023-06-21T20:14:18.645Z,63.19
2023-06-21T20:16:45.937Z,63.99
2023-06-21T20:19:16.924Z,64.10
2023-06-21T20:21:46.755Z,64.05
2023-06-21T20:24:16.995Z,64.93
2023-06-21T20:26:44.022Z,65.25
2023-06-21T20:29:10.959Z,65.34
2023-06-21T20:31:38.197Z,65.57
2023-06-21T20:34:08.938Z,66.09
2023-06-21T20:36:36.835Z,66.79
2023-06-21T20:39:08.845Z,66.56
2023-06-21T20:41:35.619Z,66.74
2023-06-21T20:44:02.941Z,66.98
2023-06-21T20:46:29.759Z,67.00
2023-06-21T20:48:59.534Z,67.03
2023-06-21T20:51:26.375Z,68.00
2023-06-21T20:53:52.831Z,68.37
2023-06-21T20:56:19.512Z,68.75
2023-06-21T20:58:46.069Z,68.69
2023-06-21T21:01:15.009Z,69.26
2023-06-21T21:03:42.603Z,69.39
2023-06-21T21:06:09.294Z,69.60
2023-06-21T21:08:38.365Z,69.57
2023-06-21T21:11:05.892Z,69.39
2023-06-21T21:13:34.400Z,69.92
2023-06-21T21:16:00.934Z,69.91
2023-06-21T21:18:27.463Z,70.51
2023-06-21T21:20:53.918Z,70.70
2023-06-21T21:23:21.165Z,70.25
2023-06-21T21:25:48.147Z,71.06
2023-06-21T21:28:15.249Z,71.27
2023-06-21T21:30:41.858Z,71.51
2023-06-21T21:33:08.398Z,71.31
2023-06-21T21:35:35.224Z,71.42
2023-06-21T21:38:06.895Z,71.87
2023-06-21T21:40:33.731Z,71.66
2023-06-21T21:43:00.448Z,71.19
2023-06-21T21:45:26.909Z,71.52
2023-06-21T21:47:53.528Z,71.68
2023-06-21T21:50:20.166Z,71.10
2023-06-21T21:52:46.754Z,71.42
2023-06-21T21:55:17.062Z,71.94
2023-06-21T21:57:43.563Z,72.20
2023-06-21T22:00:11.905Z,72.56
2023-06-21T22:02:42.041Z,72.47
2023-06-21T22:05:08.687Z,73.12
2023-06-21T22:07:35.148Z,73.17
2023-06-21T22:10:02.947Z,73.88
2023-06-21T22:12:29.474Z,73.22
2023-06-21T22:14:56.102Z,73.86
2023-06-21T22:17:43.151Z,74.09
2023-06-21T22:20:16.411Z,73.93
2023-06-21T22:22:45.338Z,73.70
2023-06-21T22:25:14.272Z,74.06
2023-06-21T22:27:42.722Z,73.67
2023-06-21T22:30:09.999Z,73.65
2023-06-21T22:32:36.548Z,73.16
2023-06-21T22:35:03.990Z,72.83
2023-06-21T22:37:30.699Z,73.46
2023-06-21T22:39:57.246Z,73.28
2023-06-21T22:42:23.730Z,73.87
2023-06-21T22:44:50.235Z,73.67
2023-06-21T22:47:18.552Z,74.25
2023-06-21T22:49:45.735Z,73.70
2023-06-21T22:52:12.354Z,73.90
2023-06-21T22:54:40.275Z,74.12
2023-06-21T22:57:09.103Z,74.91
2023-06-21T22:59:36.205Z,74.14
2023-06-21T23:02:02.720Z,74.37
2023-06-21T23:04:29.975Z,74.67
2023-06-21T23:06:56.703Z,74.49
2023-06-21T23:09:23.727Z,74.81
2023-06-21T23:11:50.448Z,75.36
2023-06-21T23:14:19.044Z,75.68
2023-06-21T23:16:45.757Z,75.83
2023-06-21T23:19:14.157Z,75.93
2023-06-21T23:21:42.196Z,76.53
2023-06-21T23:24:09.386Z,76.59
2023-06-21T23:26:35.929Z,77.20
2023-06-21T23:29:03.261Z,77.19
2023-06-21T23:31:34.670Z,77.47
2023-06-21T23:34:02.392Z,77.35
2023-06-21T23:36:31.326Z,77.73
2023-06-21T23:39:01.158Z,77.85
2023-06-21T23:41:31.843Z,77.89
2023-06-21T23:44:02.650Z,78.16
2023-06-21T23:46:33.561Z,78.07
2023-06-21T23:49:02.038Z,78.38
2023-06-21T23:51:31.375Z,78.52
2023-06-21T23:53:58.752Z,78.75
2023-06-21T23:56:27.770Z,79.02
2023-06-21T23:58:54.851Z,78.92
